Time;durP1;ratioP1;P1;durP2;ratioP2;P2;SDS_P1;SDS_P2;PMS_P1;PMS_P2;Temp;Humidity;BMP_temperature;BMP_pressure;BME280_temperature;BME280_humidity;BME280_pressure;Samples;Min_cycle;Max_cycle;Signal;HPM_P1;HPM_P2
2022/01/04 00:00:13;;;;;;;13.23;6.97;;;;;;;;;;5029217;28;20072;-79
2022/01/04 00:02:39;;;;;;;10.40;6.35;;;;;;;;;;5028847;28;20098;-80
2022/01/04 00:05:05;;;;;;;13.13;7.35;;;;;;;;;;5029806;28;20072;-81
2022/01/04 00:07:32;;;;;;;9.57;6.40;;;;;;;;;;5029096;28;20037;-81
2022/01/04 00:09:58;;;;;;;11.35;5.88;;;;;;;;;;5044116;28;20098;-79
2022/01/04 00:15:09;;;;;;;10.32;5.90;;;;;;;;;;5066491;28;20052;-80
2022/01/04 00:17:35;;;;;;;11.05;6.10;;;;;;;;;;5048835;28;20044;-80
2022/01/04 00:20:01;;;;;;;10.73;6.28;;;;;;;;;;5033053;28;20053;-79
2022/01/04 00:22:27;;;;;;;10.73;5.90;;;;;;;;;;5043374;28;20052;-79
2022/01/04 00:24:53;;;;;;;10.60;6.18;;;;;;;;;;5043494;28;20045;-80
2022/01/04 00:27:19;;;;;;;10.55;5.88;;;;;;;;;;5060603;28;20041;-81
2022/01/04 00:29:45;;;;;;;17.98;6.57;;;;;;;;;;5043888;28;20067;-82
2022/01/04 00:32:11;;;;;;;10.02;6.18;;;;;;;;;;5046920;28;20128;-82
2022/01/04 00:34:37;;;;;;;8.95;6.20;;;;;;;;;;5047418;28;20518;-83
2022/01/04 00:37:03;;;;;;;9.38;5.95;;;;;;;;;;5047071;28;20067;-82
2022/01/04 00:39:29;;;;;;;11.68;6.25;;;;;;;;;;5031482;28;20033;-82
2022/01/04 00:41:56;;;;;;;9.75;5.90;;;;;;;;;;5044574;28;20037;-82
2022/01/04 00:44:22;;;;;;;10.82;6.30;;;;;;;;;;5029409;28;20037;-81
2022/01/04 00:46:48;;;;;;;11.80;6.55;;;;;;;;;;5045112;28;20045;-81
2022/01/04 00:49:17;;;;;;;9.57;6.10;;;;;;;;;;5046380;28;20063;-83
2022/01/04 00:51:44;;;;;;;11.63;6.85;;;;;;;;;;5031207;28;20055;-82
2022/01/04 00:54:10;;;;;;;11.07;6.82;;;;;;;;;;5029023;28;20045;-82
2022/01/04 00:56:36;;;;;;;10.32;7.07;;;;;;;;;;5059839;28;20041;-80
2022/01/04 00:59:02;;;;;;;12.90;7.22;;;;;;;;;;5043283;28;20048;-81
2022/01/04 01:01:28;;;;;;;14.13;6.97;;;;;;;;;;5042457;28;20448;-80
2022/01/04 01:03:54;;;;;;;15.13;7.25;;;;;;;;;;5042121;28;20049;-81
2022/01/04 01:06:21;;;;;;;11.18;7.03;;;;;;;;;;5044047;28;20037;-82
2022/01/04 01:08:47;;;;;;;11.52;6.32;;;;;;;;;;5035377;28;20052;-80
2022/01/04 01:11:13;;;;;;;9.27;5.93;;;;;;;;;;5057832;28;20028;-80
2022/01/04 01:13:39;;;;;;;8.73;5.38;;;;;;;;;;5041048;28;20044;-80
2022/01/04 01:16:05;;;;;;;9.60;5.60;;;;;;;;;;5057289;28;20037;-79
2022/01/04 01:18:31;;;;;;;6.10;4.22;;;;;;;;;;5047547;28;20067;-80
2022/01/04 01:20:57;;;;;;;6.13;3.95;;;;;;;;;;5029643;28;20042;-78
2022/01/04 01:23:23;;;;;;;6.45;3.58;;;;;;;;;;5039847;28;20089;-82
2022/01/04 01:25:49;;;;;;;6.22;3.35;;;;;;;;;;5044225;28;20047;-83
2022/01/04 01:28:15;;;;;;;6.68;3.88;;;;;;;;;;5045920;28;20046;-81
2022/01/04 01:30:43;;;;;;;6.07;3.55;;;;;;;;;;5043927;28;20041;-81
2022/01/04 01:33:09;;;;;;;4.57;3.05;;;;;;;;;;5028871;28;20095;-82
2022/01/04 01:35:37;;;;;;;4.85;3.10;;;;;;;;;;5048171;28;20041;-81
2022/01/04 01:38:03;;;;;;;11.27;3.20;;;;;;;;;;5030470;28;20041;-81
2022/01/04 01:40:29;;;;;;;6.55;2.85;;;;;;;;;;5047671;28;20067;-82
2022/01/04 01:42:55;;;;;;;5.88;3.22;;;;;;;;;;5047496;28;20053;-80
2022/01/04 01:45:23;;;;;;;7.72;3.72;;;;;;;;;;5050527;28;20041;-81
2022/01/04 01:47:49;;;;;;;6.90;3.70;;;;;;;;;;5045272;28;20075;-80
2022/01/04 01:50:15;;;;;;;8.65;4.50;;;;;;;;;;5048204;28;20052;-80
2022/01/04 01:52:41;;;;;;;8.35;4.82;;;;;;;;;;5028154;28;20052;-79
2022/01/04 01:55:09;;;;;;;7.10;4.75;;;;;;;;;;5043857;28;20045;-80
2022/01/04 01:57:35;;;;;;;9.82;5.65;;;;;;;;;;5030115;28;20040;-80
2022/01/04 02:00:01;;;;;;;10.23;6.20;;;;;;;;;;5046539;28;20047;-81
2022/01/04 02:02:27;;;;;;;11.45;6.68;;;;;;;;;;5047090;28;20419;-81
2022/01/04 02:04:53;;;;;;;10.63;6.97;;;;;;;;;;5046694;28;20064;-83
2022/01/04 02:07:20;;;;;;;10.32;7.75;;;;;;;;;;5028955;28;20100;-79
2022/01/04 02:09:55;;;;;;;14.23;8.88;;;;;;;;;;5051719;28;20052;-79
2022/01/04 02:12:22;;;;;;;14.20;9.32;;;;;;;;;;5035197;28;20060;-80
2022/01/04 02:14:51;;;;;;;17.08;10.35;;;;;;;;;;5046004;28;20045;-80
2022/01/04 02:17:17;;;;;;;19.05;11.52;;;;;;;;;;5045584;28;20032;-80
2022/01/04 02:19:43;;;;;;;17.00;10.80;;;;;;;;;;5045384;28;20511;-80
2022/01/04 02:22:09;;;;;;;21.25;13.07;;;;;;;;;;5029989;28;20116;-80
2022/01/04 02:24:35;;;;;;;17.27;12.43;;;;;;;;;;5046427;28;20436;-80
2022/01/04 02:27:01;;;;;;;22.60;14.00;;;;;;;;;;5029007;28;20049;-80
2022/01/04 02:29:27;;;;;;;23.00;14.35;;;;;;;;;;5065346;28;20451;-81
2022/01/04 02:31:53;;;;;;;22.67;14.07;;;;;;;;;;5031542;28;20096;-82
2022/01/04 02:34:19;;;;;;;26.33;15.98;;;;;;;;;;5047749;28;20041;-81
2022/01/04 02:36:45;;;;;;;23.77;15.13;;;;;;;;;;5048365;28;20095;-83
2022/01/04 02:39:12;;;;;;;23.83;15.75;;;;;;;;;;5049425;28;20037;-83
2022/01/04 02:41:38;;;;;;;26.55;16.38;;;;;;;;;;5032786;28;20048;-83
2022/01/04 02:44:04;;;;;;;22.63;15.52;;;;;;;;;;5048228;28;20032;-81
2022/01/04 02:46:30;;;;;;;23.73;16.45;;;;;;;;;;5030335;28;20120;-82
2022/01/04 02:48:56;;;;;;;27.58;17.33;;;;;;;;;;5028136;28;20059;-84
2022/01/04 02:51:23;;;;;;;25.23;16.65;;;;;;;;;;5044782;28;20044;-82
2022/01/04 02:53:49;;;;;;;26.08;17.70;;;;;;;;;;5032268;28;20049;-81
2022/01/04 02:56:15;;;;;;;27.20;16.73;;;;;;;;;;5028307;28;20041;-81
2022/01/04 02:58:41;;;;;;;24.70;14.40;;;;;;;;;;5028283;28;20102;-82
2022/01/04 03:01:07;;;;;;;20.83;13.13;;;;;;;;;;5034505;28;20061;-82
2022/01/04 03:03:33;;;;;;;21.52;11.70;;;;;;;;;;5031240;28;20037;-81
2022/01/04 03:05:59;;;;;;;16.85;11.07;;;;;;;;;;5029661;28;20412;-81
2022/01/04 03:08:25;;;;;;;18.63;11.02;;;;;;;;;;5032234;28;20045;-84
2022/01/04 03:10:51;;;;;;;14.07;10.02;;;;;;;;;;5030333;28;20040;-80
2022/01/04 03:13:17;;;;;;;14.57;9.82;;;;;;;;;;5029936;28;20045;-80
2022/01/04 03:15:47;;;;;;;15.80;9.77;;;;;;;;;;5028996;28;20037;-81
2022/01/04 03:18:14;;;;;;;13.35;9.07;;;;;;;;;;5044273;28;20088;-82
2022/01/04 03:20:40;;;;;;;15.68;9.57;;;;;;;;;;5027825;28;20040;-80
2022/01/04 03:23:09;;;;;;;15.25;9.32;;;;;;;;;;5045004;28;20041;-81
2022/01/04 03:25:36;;;;;;;14.55;9.05;;;;;;;;;;5046939;28;20052;-84
2022/01/04 03:28:02;;;;;;;14.00;9.15;;;;;;;;;;5049224;28;20037;-83
2022/01/04 03:30:28;;;;;;;11.45;8.02;;;;;;;;;;5048935;28;20049;-82
2022/01/04 03:32:54;;;;;;;12.07;8.32;;;;;;;;;;5046179;28;20044;-81
2022/01/04 03:35:21;;;;;;;13.32;8.63;;;;;;;;;;5045842;28;20045;-81
2022/01/04 03:37:47;;;;;;;13.68;8.43;;;;;;;;;;5025789;28;20136;-80
2022/01/04 03:40:13;;;;;;;12.88;8.25;;;;;;;;;;5045062;28;20043;-81
2022/01/04 03:42:39;;;;;;;10.48;7.65;;;;;;;;;;5046248;28;20065;-82
2022/01/04 03:45:06;;;;;;;11.50;7.43;;;;;;;;;;5030470;28;20041;-80
2022/01/04 03:47:32;;;;;;;11.98;7.22;;;;;;;;;;5030330;28;20041;-83
2022/01/04 03:49:58;;;;;;;12.23;7.78;;;;;;;;;;5065633;28;20103;-78
2022/01/04 03:52:24;;;;;;;10.45;6.90;;;;;;;;;;5032779;28;20052;-81
2022/01/04 03:54:50;;;;;;;10.68;7.22;;;;;;;;;;5044122;28;20033;-80
2022/01/04 03:57:16;;;;;;;9.40;6.78;;;;;;;;;;5061296;28;20422;-79
2022/01/04 03:59:42;;;;;;;12.10;6.80;;;;;;;;;;5025874;28;20433;-82
2022/01/04 04:02:08;;;;;;;10.02;7.18;;;;;;;;;;5045969;28;20067;-82
2022/01/04 04:04:34;;;;;;;11.52;6.90;;;;;;;;;;5030329;28;20037;-81
2022/01/04 04:07:00;;;;;;;9.30;6.97;;;;;;;;;;5027918;28;20117;-78
2022/01/04 04:09:26;;;;;;;9.93;6.47;;;;;;;;;;5045186;28;20119;-79
2022/01/04 04:11:52;;;;;;;9.15;6.22;;;;;;;;;;5029339;28;20082;-81
2022/01/04 04:14:18;;;;;;;9.68;6.43;;;;;;;;;;5061477;28;20040;-81
2022/01/04 04:16:44;;;;;;;9.88;5.85;;;;;;;;;;5046246;28;20048;-83
2022/01/04 04:19:10;;;;;;;9.68;6.13;;;;;;;;;;5045503;28;20079;-82
2022/01/04 04:21:36;;;;;;;8.70;6.30;;;;;;;;;;5046823;28;20047;-80
2022/01/04 04:24:02;;;;;;;7.93;5.78;;;;;;;;;;5044419;28;20041;-81
2022/01/04 04:26:28;;;;;;;8.02;5.80;;;;;;;;;;5045500;28;20070;-82
2022/01/04 04:28:54;;;;;;;8.65;6.40;;;;;;;;;;5028543;28;20135;-81
2022/01/04 04:31:20;;;;;;;9.38;6.35;;;;;;;;;;5029527;28;20045;-82
2022/01/04 04:33:46;;;;;;;8.30;5.47;;;;;;;;;;5030760;28;20068;-82
2022/01/04 04:36:12;;;;;;;9.07;6.38;;;;;;;;;;5047377;28;20044;-83
2022/01/04 04:38:38;;;;;;;10.43;6.78;;;;;;;;;;5029266;28;20476;-81
2022/01/04 04:41:04;;;;;;;10.65;6.93;;;;;;;;;;5049093;28;20040;-80
2022/01/04 04:43:30;;;;;;;8.82;6.50;;;;;;;;;;5045379;28;20049;-81
2022/01/04 04:45:56;;;;;;;12.98;7.93;;;;;;;;;;5044290;28;20055;-79
2022/01/04 04:48:24;;;;;;;10.10;7.00;;;;;;;;;;5059952;28;20088;-80
2022/01/04 04:50:50;;;;;;;10.90;7.10;;;;;;;;;;5043443;28;20045;-79
2022/01/04 04:53:16;;;;;;;10.10;6.43;;;;;;;;;;5053135;28;20051;-79
2022/01/04 04:55:42;;;;;;;12.45;6.80;;;;;;;;;;5032796;28;20045;-80
2022/01/04 04:58:08;;;;;;;10.75;7.20;;;;;;;;;;5061371;28;20048;-80
2022/01/04 05:00:34;;;;;;;9.27;7.10;;;;;;;;;;5043612;28;20524;-81
2022/01/04 05:03:00;;;;;;;13.38;7.05;;;;;;;;;;5044451;28;20428;-82
2022/01/04 05:05:26;;;;;;;10.93;7.70;;;;;;;;;;5029244;28;20041;-83
2022/01/04 05:07:52;;;;;;;13.73;7.40;;;;;;;;;;5042671;28;20032;-82
2022/01/04 05:10:18;;;;;;;12.70;8.18;;;;;;;;;;5026710;28;20055;-79
2022/01/04 05:12:44;;;;;;;12.75;8.20;;;;;;;;;;5024506;28;20045;-81
2022/01/04 05:15:10;;;;;;;11.07;8.07;;;;;;;;;;5042911;28;20055;-81
2022/01/04 05:17:37;;;;;;;13.55;8.55;;;;;;;;;;5043244;28;20075;-82
2022/01/04 05:20:03;;;;;;;16.35;8.88;;;;;;;;;;5027455;28;20079;-81
2022/01/04 05:22:29;;;;;;;11.55;8.82;;;;;;;;;;5026541;28;20041;-80
2022/01/04 05:24:55;;;;;;;15.73;10.25;;;;;;;;;;5045267;28;20041;-81
2022/01/04 05:27:21;;;;;;;13.50;9.88;;;;;;;;;;5026255;28;20037;-79
2022/01/04 05:29:47;;;;;;;15.02;9.43;;;;;;;;;;5024228;28;20442;-80
2022/01/04 05:32:13;;;;;;;13.73;8.93;;;;;;;;;;5026753;28;20441;-80
2022/01/04 05:34:39;;;;;;;13.82;9.02;;;;;;;;;;5027431;28;20044;-80
2022/01/04 05:37:05;;;;;;;12.88;8.77;;;;;;;;;;5042875;28;20037;-80
2022/01/04 05:39:31;;;;;;;13.15;9.02;;;;;;;;;;5036905;28;20093;-79
2022/01/04 05:41:57;;;;;;;17.35;9.65;;;;;;;;;;5058846;28;20045;-80
2022/01/04 05:44:23;;;;;;;16.13;9.00;;;;;;;;;;5060432;28;20068;-80
2022/01/04 05:46:49;;;;;;;13.00;9.60;;;;;;;;;;5041478;28;20091;-78
2022/01/04 05:49:15;;;;;;;15.32;9.20;;;;;;;;;;5041241;28;20069;-81
2022/01/04 05:51:42;;;;;;;15.60;9.30;;;;;;;;;;5043034;28;20121;-81
2022/01/04 05:54:08;;;;;;;12.45;8.88;;;;;;;;;;5040518;28;20461;-80
2022/01/04 05:56:34;;;;;;;13.30;9.13;;;;;;;;;;5039679;28;20048;-80
2022/01/04 05:59:00;;;;;;;13.20;8.60;;;;;;;;;;5022823;28;20045;-81
2022/01/04 06:01:26;;;;;;;15.20;9.88;;;;;;;;;;5038757;28;20032;-78
2022/01/04 06:03:52;;;;;;;21.05;10.50;;;;;;;;;;5026890;28;20112;-81
2022/01/04 06:06:18;;;;;;;14.77;10.65;;;;;;;;;;5055980;28;20476;-80
2022/01/04 06:08:45;;;;;;;20.05;10.50;;;;;;;;;;5021115;28;20065;-78
2022/01/04 06:11:30;;;;;;;17.02;11.02;;;;;;;;;;5042271;28;20413;-77
2022/01/04 06:16:40;;;;;;;15.93;11.20;;;;;;;;;;5044528;28;20045;-78
2022/01/04 06:19:06;;;;;;;18.02;11.85;;;;;;;;;;5029343;28;20116;-77
2022/01/04 06:21:32;;;;;;;17.05;11.73;;;;;;;;;;5046271;28;20047;-79
2022/01/04 06:23:58;;;;;;;21.42;12.52;;;;;;;;;;5029033;28;20040;-79
2022/01/04 06:26:24;;;;;;;20.98;12.57;;;;;;;;;;5051158;28;20045;-78
2022/01/04 06:28:50;;;;;;;20.77;13.20;;;;;;;;;;5060049;28;20025;-77
2022/01/04 06:31:16;;;;;;;22.42;13.70;;;;;;;;;;5060811;28;20075;-78
2022/01/04 06:33:43;;;;;;;22.95;14.98;;;;;;;;;;5076178;28;20045;-77
2022/01/04 06:36:09;;;;;;;21.25;14.45;;;;;;;;;;5047867;28;20080;-79
2022/01/04 06:38:35;;;;;;;24.02;15.75;;;;;;;;;;5028640;28;20357;-80
2022/01/04 06:41:01;;;;;;;24.63;15.90;;;;;;;;;;5027852;28;20029;-80
2022/01/04 06:43:27;;;;;;;25.50;16.13;;;;;;;;;;5028063;28;20068;-79
2022/01/04 06:45:53;;;;;;;25.08;15.98;;;;;;;;;;5026916;28;20044;-79
2022/01/04 06:48:19;;;;;;;25.95;16.15;;;;;;;;;;5043826;28;20057;-79
2022/01/04 06:50:45;;;;;;;26.65;17.27;;;;;;;;;;5045716;28;20048;-79
2022/01/04 06:53:11;;;;;;;23.70;16.25;;;;;;;;;;5029120;28;20085;-81
2022/01/04 06:55:37;;;;;;;25.25;15.50;;;;;;;;;;5044344;28;20045;-80
2022/01/04 06:58:03;;;;;;;26.52;16.17;;;;;;;;;;5045358;28;20067;-80
2022/01/04 07:00:29;;;;;;;26.35;15.63;;;;;;;;;;5062283;28;20463;-82
2022/01/04 07:02:55;;;;;;;27.55;17.30;;;;;;;;;;5031813;28;20120;-80
2022/01/04 07:05:21;;;;;;;25.25;16.77;;;;;;;;;;5051763;28;20051;-81
2022/01/04 07:07:47;;;;;;;26.13;16.20;;;;;;;;;;5050091;28;20510;-79
2022/01/04 07:10:13;;;;;;;24.25;15.77;;;;;;;;;;5069390;28;20055;-76
2022/01/04 07:12:39;;;;;;;23.98;15.63;;;;;;;;;;5069717;28;20091;-76
2022/01/04 07:15:05;;;;;;;22.85;15.20;;;;;;;;;;5053163;28;20037;-77
2022/01/04 07:17:31;;;;;;;22.98;14.40;;;;;;;;;;5054879;28;20061;-77
2022/01/04 07:19:57;;;;;;;23.30;15.40;;;;;;;;;;5043198;28;20033;-78
2022/01/04 07:22:23;;;;;;;25.88;15.25;;;;;;;;;;5049731;28;20041;-78
2022/01/04 07:24:49;;;;;;;24.55;15.18;;;;;;;;;;5042570;28;20040;-80
2022/01/04 07:27:15;;;;;;;23.88;15.57;;;;;;;;;;5071494;28;20431;-80
2022/01/04 07:29:41;;;;;;;26.85;16.77;;;;;;;;;;5043197;28;20108;-78
2022/01/04 07:32:07;;;;;;;24.20;16.17;;;;;;;;;;5043165;28;20152;-79
2022/01/04 07:34:33;;;;;;;26.17;16.88;;;;;;;;;;5027608;28;20037;-80
2022/01/04 07:36:59;;;;;;;24.15;16.73;;;;;;;;;;5046083;28;20036;-81
2022/01/04 07:39:26;;;;;;;26.52;16.83;;;;;;;;;;5046148;28;20505;-79
2022/01/04 07:41:52;;;;;;;29.08;17.25;;;;;;;;;;5045102;28;20063;-80
2022/01/04 07:44:18;;;;;;;27.95;17.67;;;;;;;;;;5060587;28;20241;-81
2022/01/04 07:46:44;;;;;;;26.35;18.42;;;;;;;;;;5046153;28;20087;-80
2022/01/04 07:49:10;;;;;;;25.85;17.27;;;;;;;;;;5044663;28;20362;-80
2022/01/04 07:51:36;;;;;;;29.58;19.02;;;;;;;;;;5030782;28;20330;-79
2022/01/04 07:54:02;;;;;;;27.92;17.60;;;;;;;;;;5045666;28;20045;-80
2022/01/04 07:56:28;;;;;;;31.75;18.42;;;;;;;;;;5029497;28;20068;-81
2022/01/04 07:59:00;;;;;;;27.60;18.55;;;;;;;;;;5063535;28;20033;-81
2022/01/04 08:01:26;;;;;;;29.23;19.15;;;;;;;;;;5046160;28;20040;-78
2022/01/04 08:03:52;;;;;;;23.95;16.63;;;;;;;;;;5047708;28;20037;-80
2022/01/04 08:06:18;;;;;;;33.05;21.75;;;;;;;;;;5028478;28;20128;-80
2022/01/04 08:08:44;;;;;;;28.42;19.27;;;;;;;;;;5030162;28;20441;-82
2022/01/04 08:11:10;;;;;;;27.90;18.38;;;;;;;;;;5027685;28;20052;-82
2022/01/04 08:13:36;;;;;;;28.10;17.73;;;;;;;;;;5027207;28;20041;-81
2022/01/04 08:16:02;;;;;;;29.73;18.63;;;;;;;;;;5062256;28;20124;-80
2022/01/04 08:18:28;;;;;;;26.15;16.60;;;;;;;;;;5061368;28;20171;-81
2022/01/04 08:20:57;;;;;;;22.50;15.40;;;;;;;;;;5026738;28;20449;-80
2022/01/04 08:23:24;;;;;;;22.45;15.27;;;;;;;;;;5029001;28;20449;-78
2022/01/04 08:25:50;;;;;;;23.13;15.43;;;;;;;;;;5028699;28;20037;-81
2022/01/04 08:28:16;;;;;;;25.40;15.77;;;;;;;;;;5027601;28;20091;-80
2022/01/04 08:30:43;;;;;;;25.50;16.30;;;;;;;;;;5044149;28;20045;-82
2022/01/04 08:33:09;;;;;;;25.70;16.50;;;;;;;;;;5043273;28;20492;-81
2022/01/04 08:35:35;;;;;;;26.55;16.50;;;;;;;;;;5044306;28;20037;-79
2022/01/04 08:38:01;;;;;;;24.15;17.33;;;;;;;;;;5027932;28;20055;-82
2022/01/04 08:40:27;;;;;;;26.35;16.73;;;;;;;;;;5062423;28;20037;-80
2022/01/04 08:42:54;;;;;;;27.38;18.08;;;;;;;;;;5028448;28;20040;-81
2022/01/04 08:45:21;;;;;;;28.23;19.20;;;;;;;;;;5063630;28;20041;-80
2022/01/04 08:47:49;;;;;;;30.60;18.15;;;;;;;;;;5044108;28;20089;-80
2022/01/04 08:50:15;;;;;;;23.75;16.52;;;;;;;;;;5028056;28;20104;-80
2022/01/04 08:52:41;;;;;;;27.85;16.90;;;;;;;;;;5042634;28;20072;-81
2022/01/04 08:55:08;;;;;;;29.15;17.17;;;;;;;;;;5025536;28;20067;-81
2022/01/04 08:57:34;;;;;;;27.17;16.80;;;;;;;;;;5027461;28;20044;-79
2022/01/04 09:00:00;;;;;;;25.75;16.55;;;;;;;;;;5043545;28;20341;-79
2022/01/04 09:02:26;;;;;;;24.95;17.55;;;;;;;;;;5028120;28;20115;-79
2022/01/04 09:04:52;;;;;;;26.38;17.77;;;;;;;;;;5040930;28;20041;-81
2022/01/04 09:07:18;;;;;;;28.25;17.77;;;;;;;;;;5040823;28;20048;-80
2022/01/04 09:09:44;;;;;;;26.55;16.48;;;;;;;;;;5039847;28;20040;-80
2022/01/04 09:12:12;;;;;;;27.05;17.40;;;;;;;;;;5023744;28;20052;-80
2022/01/04 09:15:28;;;;;;;24.30;17.40;;;;;;;;;;5032508;28;20100;-79
2022/01/04 09:20:14;;;;;;;28.65;17.98;;;;;;;;;;5049058;28;20045;-79
2022/01/04 09:22:40;;;;;;;27.25;18.90;;;;;;;;;;5052510;28;20028;-81
2022/01/04 09:25:06;;;;;;;32.03;19.55;;;;;;;;;;5025018;28;20072;-82
2022/01/04 09:27:32;;;;;;;31.10;20.20;;;;;;;;;;5024853;28;20052;-83
2022/01/04 09:30:03;;;;;;;32.50;19.67;;;;;;;;;;5025310;28;20080;-80
2022/01/04 09:32:30;;;;;;;37.10;20.73;;;;;;;;;;5043958;28;20044;-79
2022/01/04 09:34:56;;;;;;;31.30;20.33;;;;;;;;;;5025574;28;20037;-78
2022/01/04 09:37:24;;;;;;;36.50;21.08;;;;;;;;;;5024744;28;20045;-83
2022/01/04 09:39:50;;;;;;;33.78;20.98;;;;;;;;;;5060813;28;20061;-78
2022/01/04 09:42:16;;;;;;;35.22;21.08;;;;;;;;;;5026478;28;20059;-81
2022/01/04 09:44:42;;;;;;;36.38;20.77;;;;;;;;;;5024397;28;20460;-81
2022/01/04 09:47:08;;;;;;;31.50;19.05;;;;;;;;;;5061601;28;20051;-81
2022/01/04 09:49:34;;;;;;;28.52;17.52;;;;;;;;;;5026862;28;20045;-80
2022/01/04 09:52:00;;;;;;;30.10;17.55;;;;;;;;;;5027906;28;20100;-79
2022/01/04 09:54:28;;;;;;;28.67;17.45;;;;;;;;;;5047196;28;20041;-81
2022/01/04 09:56:54;;;;;;;28.70;16.77;;;;;;;;;;5031660;28;20041;-82
2022/01/04 09:59:20;;;;;;;28.23;16.27;;;;;;;;;;5047750;28;20044;-81
2022/01/04 10:01:51;;;;;;;29.15;16.48;;;;;;;;;;5032926;28;20041;-80
2022/01/04 10:04:17;;;;;;;26.92;15.98;;;;;;;;;;5049671;28;20041;-81
2022/01/04 10:07:16;;;;;;;26.85;17.58;;;;;;;;;;5048535;28;20099;-81
2022/01/04 10:09:46;;;;;;;27.70;17.33;;;;;;;;;;5005424;28;20040;-79
2022/01/04 10:12:21;;;;;;;25.67;16.50;;;;;;;;;;5031640;28;20093;-80
2022/01/04 10:14:48;;;;;;;28.25;16.33;;;;;;;;;;5031432;28;20127;-82
2022/01/04 10:17:27;;;;;;;26.98;17.23;;;;;;;;;;5049202;28;20063;-81
2022/01/04 10:19:54;;;;;;;30.50;17.48;;;;;;;;;;5033935;28;20037;-82
2022/01/04 10:22:25;;;;;;;29.92;17.17;;;;;;;;;;5048578;28;20041;-79
2022/01/04 10:25:08;;;;;;;27.42;16.38;;;;;;;;;;5033320;28;20045;-80
2022/01/04 10:27:44;;;;;;;23.67;14.85;;;;;;;;;;5032883;28;20041;-79
2022/01/04 10:30:22;;;;;;;28.55;15.50;;;;;;;;;;5031313;28;20052;-81
2022/01/04 10:32:48;;;;;;;23.98;14.88;;;;;;;;;;5065235;28;20051;-80
2022/01/04 10:35:21;;;;;;;22.60;14.63;;;;;;;;;;5048233;28;20044;-80
2022/01/04 10:37:47;;;;;;;21.58;14.02;;;;;;;;;;5030745;28;20361;-80
2022/01/04 10:40:13;;;;;;;19.33;13.38;;;;;;;;;;5030621;28;20068;-79
2022/01/04 10:42:39;;;;;;;22.70;13.13;;;;;;;;;;5047595;28;20051;-81
2022/01/04 10:45:24;;;;;;;19.98;12.85;;;;;;;;;;5047256;28;20172;-79
2022/01/04 10:47:50;;;;;;;17.63;10.90;;;;;;;;;;5046924;28;20055;-80
2022/01/04 10:50:35;;;;;;;16.63;10.00;;;;;;;;;;5046687;28;20032;-79
2022/01/04 10:53:01;;;;;;;16.45;10.48;;;;;;;;;;5030863;28;20051;-81
2022/01/04 10:55:34;;;;;;;15.90;9.57;;;;;;;;;;5046650;28;20044;-80
2022/01/04 10:58:00;;;;;;;17.65;9.45;;;;;;;;;;5030502;28;20041;-79
2022/01/04 11:00:26;;;;;;;11.98;8.05;;;;;;;;;;5029554;28;20033;-82
2022/01/04 11:02:52;;;;;;;12.40;8.52;;;;;;;;;;5046399;28;20460;-81
2022/01/04 11:05:20;;;;;;;11.65;8.13;;;;;;;;;;5047039;28;20037;-79
2022/01/04 11:07:56;;;;;;;12.57;8.57;;;;;;;;;;5029832;28;20134;-83
2022/01/04 11:10:22;;;;;;;12.95;8.63;;;;;;;;;;5029371;28;20041;-82
2022/01/04 11:12:49;;;;;;;12.55;7.70;;;;;;;;;;5028950;28;20045;-82
2022/01/04 11:15:15;;;;;;;15.35;7.65;;;;;;;;;;5029305;28;20063;-80
2022/01/04 11:17:41;;;;;;;18.60;7.82;;;;;;;;;;5046009;28;20044;-82
2022/01/04 11:20:07;;;;;;;12.88;7.50;;;;;;;;;;5046420;28;20095;-81
2022/01/04 11:22:33;;;;;;;12.77;7.40;;;;;;;;;;5048821;28;20037;-80
2022/01/04 11:25:00;;;;;;;15.07;7.63;;;;;;;;;;5035618;28;20092;-80
2022/01/04 11:27:26;;;;;;;13.75;7.95;;;;;;;;;;5049209;28;20690;-82
2022/01/04 11:29:56;;;;;;;13.98;7.43;;;;;;;;;;5036645;28;20097;-79
2022/01/04 11:32:22;;;;;;;15.95;8.15;;;;;;;;;;5058095;28;20068;-81
2022/01/04 11:34:48;;;;;;;15.85;9.48;;;;;;;;;;5040155;28;20037;-78
2022/01/04 11:37:21;;;;;;;17.33;10.25;;;;;;;;;;5071320;28;20052;-81
2022/01/04 11:39:47;;;;;;;20.15;11.23;;;;;;;;;;5051706;28;20041;-78
2022/01/04 11:42:38;;;;;;;19.80;12.02;;;;;;;;;;5050195;28;20040;-80
2022/01/04 11:45:08;;;;;;;20.08;12.30;;;;;;;;;;5045641;28;20065;-79
2022/01/04 11:47:35;;;;;;;24.48;13.88;;;;;;;;;;5062375;28;20048;-79
2022/01/04 11:50:06;;;;;;;22.15;13.45;;;;;;;;;;5044674;28;20060;-78
2022/01/04 11:52:41;;;;;;;28.20;14.70;;;;;;;;;;5048922;28;20029;-77
2022/01/04 11:55:17;;;;;;;24.08;15.90;;;;;;;;;;5067721;28;20100;-80
2022/01/04 11:57:43;;;;;;;28.60;16.88;;;;;;;;;;5049467;28;20045;-80
2022/01/04 12:00:10;;;;;;;27.75;16.90;;;;;;;;;;5046820;28;20035;-80
2022/01/04 12:02:38;;;;;;;28.20;17.33;;;;;;;;;;5025261;28;20044;-80
2022/01/04 12:05:23;;;;;;;30.17;18.63;;;;;;;;;;5027529;28;20095;-78
2022/01/04 12:07:50;;;;;;;28.15;17.20;;;;;;;;;;5046253;28;20369;-79
2022/01/04 12:10:19;;;;;;;31.05;19.20;;;;;;;;;;5045080;28;20033;-78
2022/01/04 12:12:58;;;;;;;33.58;19.70;;;;;;;;;;5063439;28;20106;-78
2022/01/04 12:15:33;;;;;;;32.13;19.45;;;;;;;;;;5042022;28;20041;-80
2022/01/04 12:18:00;;;;;;;33.28;20.27;;;;;;;;;;5058217;28;20074;-79
2022/01/04 12:20:48;;;;;;;32.35;19.92;;;;;;;;;;5024988;28;20033;-78
2022/01/04 12:23:33;;;;;;;29.20;19.52;;;;;;;;;;5059797;28;20460;-77
2022/01/04 12:26:05;;;;;;;35.97;21.15;;;;;;;;;;5048750;28;20049;-79
2022/01/04 12:28:31;;;;;;;37.37;21.27;;;;;;;;;;5050288;28;20046;-79
2022/01/04 12:31:16;;;;;;;39.17;22.27;;;;;;;;;;5073114;28;20044;-80
2022/01/04 12:33:52;;;;;;;41.58;22.60;;;;;;;;;;5067555;28;20056;-79
2022/01/04 12:36:24;;;;;;;39.30;22.33;;;;;;;;;;5027059;28;20040;-80
2022/01/04 12:38:51;;;;;;;33.25;20.88;;;;;;;;;;5042348;28;20106;-80
2022/01/04 12:41:17;;;;;;;47.28;20.98;;;;;;;;;;5044419;28;20033;-81
2022/01/04 12:43:46;;;;;;;34.85;21.10;;;;;;;;;;5027558;28;20468;-81
2022/01/04 12:46:12;;;;;;;34.92;20.15;;;;;;;;;;5029037;28;20184;-81
2022/01/04 12:48:45;;;;;;;33.42;19.98;;;;;;;;;;5045424;28;20056;-81
2022/01/04 12:51:27;;;;;;;28.98;18.52;;;;;;;;;;5070850;28;20064;-78
2022/01/04 12:53:53;;;;;;;35.00;19.38;;;;;;;;;;5030794;28;20041;-81
2022/01/04 12:56:19;;;;;;;36.90;19.38;;;;;;;;;;5043671;28;20469;-80
2022/01/04 12:58:45;;;;;;;30.77;18.95;;;;;;;;;;5028479;28;20044;-79
2022/01/04 13:01:12;;;;;;;31.60;19.48;;;;;;;;;;5045184;28;20097;-80
2022/01/04 13:03:38;;;;;;;34.17;19.63;;;;;;;;;;5050692;28;20048;-81
2022/01/04 13:06:04;;;;;;;32.35;18.40;;;;;;;;;;5053207;28;20048;-81
2022/01/04 13:08:35;;;;;;;29.17;17.77;;;;;;;;;;5059471;28;20056;-78
2022/01/04 13:11:08;;;;;;;33.10;18.73;;;;;;;;;;5038713;28;20037;-81
2022/01/04 13:13:35;;;;;;;30.77;17.58;;;;;;;;;;5030876;28;20041;-78
2022/01/04 13:16:20;;;;;;;30.92;18.20;;;;;;;;;;5028383;28;20051;-80
2022/01/04 13:18:46;;;;;;;30.55;18.63;;;;;;;;;;5047049;28;20044;-78
2022/01/04 13:21:12;;;;;;;28.85;18.23;;;;;;;;;;5044019;28;20033;-79
2022/01/04 13:23:41;;;;;;;29.83;17.70;;;;;;;;;;5027061;28;20033;-79
2022/01/04 13:26:11;;;;;;;29.83;18.33;;;;;;;;;;5026682;28;20075;-77
2022/01/04 13:28:37;;;;;;;38.13;18.20;;;;;;;;;;5028744;28;20067;-78
2022/01/04 13:31:03;;;;;;;28.58;18.08;;;;;;;;;;5048109;28;20052;-81
2022/01/04 13:33:29;;;;;;;32.90;18.50;;;;;;;;;;5032810;28;20059;-80
2022/01/04 13:35:57;;;;;;;31.35;19.23;;;;;;;;;;5049231;28;20067;-81
2022/01/04 13:38:24;;;;;;;34.63;17.85;;;;;;;;;;5033173;28;20143;-80
2022/01/04 13:40:51;;;;;;;33.47;17.65;;;;;;;;;;5050152;28;20043;-79
2022/01/04 13:43:27;;;;;;;36.28;17.75;;;;;;;;;;5066865;28;20041;-82
2022/01/04 13:45:54;;;;;;;33.80;16.60;;;;;;;;;;5034028;28;20086;-81
2022/01/04 13:48:39;;;;;;;33.33;16.50;;;;;;;;;;5034710;28;20053;-82
2022/01/04 13:51:09;;;;;;;33.22;17.85;;;;;;;;;;5050623;28;20045;-81
2022/01/04 13:53:38;;;;;;;30.52;17.35;;;;;;;;;;5033051;28;20148;-81
2022/01/04 13:56:04;;;;;;;31.42;17.38;;;;;;;;;;5048846;28;20443;-80
2022/01/04 13:58:38;;;;;;;32.95;17.02;;;;;;;;;;5066783;28;20452;-81
2022/01/04 14:01:04;;;;;;;;;;;;;;;;;;5035037;28;20041;-78
2022/01/04 14:03:30;;;;;;;33.40;16.80;;;;;;;;;;5054520;28;19911;-80
2022/01/04 14:05:56;;;;;;;35.63;16.38;;;;;;;;;;5038949;28;20142;-80
2022/01/04 14:08:43;;;;;;;39.42;16.45;;;;;;;;;;5039201;28;20048;-82
2022/01/04 14:11:08;;;;;;;32.55;16.15;;;;;;;;;;5066353;28;20052;-80
2022/01/04 14:13:39;;;;;;;28.95;16.50;;;;;;;;;;5031807;28;20038;-81
2022/01/04 14:16:13;;;;;;;30.63;16.75;;;;;;;;;;5033329;28;20051;-81
2022/01/04 14:18:59;;;;;;;34.55;17.33;;;;;;;;;;5032203;28;20479;-81
2022/01/04 14:21:31;;;;;;;33.65;17.30;;;;;;;;;;5047897;28;20044;-81
2022/01/04 14:23:57;;;;;;;28.92;17.85;;;;;;;;;;5047132;28;20043;-82
2022/01/04 14:26:23;;;;;;;36.67;17.90;;;;;;;;;;5048234;28;20124;-81
2022/01/04 14:28:49;;;;;;;33.22;17.60;;;;;;;;;;5031748;28;20044;-83
2022/01/04 14:31:19;;;;;;;35.35;17.17;;;;;;;;;;5049465;28;20055;-82
2022/01/04 14:33:45;;;;;;;33.60;17.48;;;;;;;;;;5047623;28;20045;-81